sensor_id;sensor_type;location;lat;lon;timestamp;pressure;altitude;pressure_sealevel;temperature;humidity
13954;BME280;7049;49.444;8.522;2022-12-05T00:03:11;78757.72;;;-3.47;100.00
13954;BME280;7049;49.444;8.522;2022-12-05T00:08:13;78759.81;;;-3.47;100.00
13954;BME280;7049;49.444;8.522;2022-12-05T00:13:15;78761.91;;;-3.47;100.00
13954;BME280;7049;49.444;8.522;2022-12-05T00:18:16;78766.09;;;-3.47;100.00
13954;BME280;7049;49.444;8.522;2022-12-05T00:23:19;78766.09;;;-3.47;100.00
13954;BME280;7049;49.444;8.522;2022-12-05T00:28:21;78768.19;;;-3.47;100.00
13954;BME280;7049;49.444;8.522;2022-12-05T00:33:22;78768.19;;;-3.47;100.00
13954;BME280;7049;49.444;8.522;2022-12-05T00:38:25;78768.19;;;-3.47;100.00
13954;BME280;7049;49.444;8.522;2022-12-05T00:43:26;78770.28;;;-3.47;100.00
13954;BME280;7049;49.444;8.522;2022-12-05T00:48:28;78772.38;;;-3.47;100.00
13954;BME280;7049;49.444;8.522;2022-12-05T00:53:31;78768.19;;;-3.47;100.00
13954;BME280;7049;49.444;8.522;2022-12-05T00:58:34;78774.47;;;-3.47;100.00
13954;BME280;7049;49.444;8.522;2022-12-05T01:03:35;78776.56;;;-3.47;100.00
13954;BME280;7049;49.444;8.522;2022-12-05T01:08:38;78780.75;;;-3.47;100.00
13954;BME280;7049;49.444;8.522;2022-12-05T01:13:40;78780.75;;;-3.47;100.00
13954;BME280;7049;49.444;8.522;2022-12-05T01:18:41;78778.66;;;-3.47;100.00
13954;BME280;7049;49.444;8.522;2022-12-05T01:23:44;78784.94;;;-3.47;100.00
13954;BME280;7049;49.444;8.522;2022-12-05T01:28:47;78780.75;;;-3.47;100.00
13954;BME280;7049;49.444;8.522;2022-12-05T01:33:49;78778.66;;;-3.47;100.00
13954;BME280;7049;49.444;8.522;2022-12-05T01:38:53;78778.66;;;-3.47;100.00
13954;BME280;7049;49.444;8.522;2022-12-05T01:43:57;78782.84;;;-3.47;100.00
13954;BME280;7049;49.444;8.522;2022-12-05T01:49:05;78793.31;;;-3.47;100.00
13954;BME280;7049;49.444;8.522;2022-12-05T01:54:10;78789.13;;;-3.47;100.00
13954;BME280;7049;49.444;8.522;2022-12-05T01:59:12;78793.31;;;-3.47;100.00
13954;BME280;7049;49.444;8.522;2022-12-05T02:04:14;78793.31;;;-3.47;100.00
13954;BME280;7049;49.444;8.522;2022-12-05T02:09:17;78795.41;;;-3.47;100.00
13954;BME280;7049;49.444;8.522;2022-12-05T02:14:24;78797.50;;;-3.47;100.00
13954;BME280;7049;49.444;8.522;2022-12-05T02:19:52;78807.94;;;-3.47;100.00
13954;BME280;7049;49.444;8.522;2022-12-05T02:25:12;78814.22;;;-3.47;100.00
13954;BME280;7049;49.444;8.522;2022-12-05T02:30:20;78801.69;;;-3.47;100.00
13954;BME280;7049;49.444;8.522;2022-12-05T02:35:29;78810.03;;;-3.47;100.00
13954;BME280;7049;49.444;8.522;2022-12-05T02:40:40;78818.41;;;-3.47;100.00
13954;BME280;7049;49.444;8.522;2022-12-05T02:45:47;78826.78;;;-3.47;100.00
13954;BME280;7049;49.444;8.522;2022-12-05T02:50:50;78828.88;;;-3.47;100.00
13954;BME280;7049;49.444;8.522;2022-12-05T02:55:53;78837.25;;;-3.47;100.00
13954;BME280;7049;49.444;8.522;2022-12-05T03:00:57;78841.44;;;-3.47;100.00
13954;BME280;7049;49.444;8.522;2022-12-05T03:06:02;78839.34;;;-3.47;100.00
13954;BME280;7049;49.444;8.522;2022-12-05T03:11:05;78856.09;;;-3.47;100.00
13954;BME280;7049;49.444;8.522;2022-12-05T03:16:11;78858.19;;;-3.47;100.00
13954;BME280;7049;49.444;8.522;2022-12-05T03:21:20;78860.28;;;-3.47;100.00
13954;BME280;7049;49.444;8.522;2022-12-05T03:26:35;78864.47;;;-3.47;100.00
13954;BME280;7049;49.444;8.522;2022-12-05T03:31:44;78872.84;;;-3.47;100.00
13954;BME280;7049;49.444;8.522;2022-12-05T03:36:50;78864.47;;;-3.47;100.00
13954;BME280;7049;49.444;8.522;2022-12-05T03:41:57;78874.94;;;-3.47;100.00
13954;BME280;7049;49.444;8.522;2022-12-05T03:47:04;78879.13;;;-3.47;100.00
13954;BME280;7049;49.444;8.522;2022-12-05T03:52:12;78872.84;;;-3.47;100.00
13954;BME280;7049;49.444;8.522;2022-12-05T03:57:20;78874.94;;;-3.47;100.00
13954;BME280;7049;49.444;8.522;2022-12-05T04:02:27;78881.22;;;-3.47;100.00
13954;BME280;7049;49.444;8.522;2022-12-05T04:07:32;78881.22;;;-3.47;100.00
13954;BME280;7049;49.444;8.522;2022-12-05T04:12:36;78881.22;;;-3.47;100.00
13954;BME280;7049;49.444;8.522;2022-12-05T04:17:47;78877.03;;;-3.47;100.00
13954;BME280;7049;49.444;8.522;2022-12-05T04:22:51;78877.03;;;-3.47;100.00
13954;BME280;7049;49.444;8.522;2022-12-05T04:27:58;78881.22;;;-3.47;100.00
13954;BME280;7049;49.444;8.522;2022-12-05T04:33:04;78872.84;;;-3.47;100.00
13954;BME280;7049;49.444;8.522;2022-12-05T04:38:10;78881.22;;;-3.47;100.00
13954;BME280;7049;49.444;8.522;2022-12-05T04:43:14;78889.59;;;-3.47;100.00
13954;BME280;7049;49.444;8.522;2022-12-05T04:48:18;78891.69;;;-3.47;100.00
13954;BME280;7049;49.444;8.522;2022-12-05T04:53:25;78883.31;;;-3.47;100.00
13954;BME280;7049;49.444;8.522;2022-12-05T04:58:29;78877.03;;;-3.47;100.00
13954;BME280;7049;49.444;8.522;2022-12-05T05:03:39;78868.66;;;-3.47;100.00
13954;BME280;7049;49.444;8.522;2022-12-05T05:08:47;78864.47;;;-3.47;100.00
13954;BME280;7049;49.444;8.522;2022-12-05T05:13:49;78864.47;;;-3.47;100.00
13954;BME280;7049;49.444;8.522;2022-12-05T05:18:53;78868.66;;;-3.47;100.00
13954;BME280;7049;49.444;8.522;2022-12-05T05:23:56;78872.84;;;-3.47;100.00
13954;BME280;7049;49.444;8.522;2022-12-05T05:28:58;78868.66;;;-3.47;100.00
13954;BME280;7049;49.444;8.522;2022-12-05T05:34:01;78877.03;;;-3.47;100.00
13954;BME280;7049;49.444;8.522;2022-12-05T05:39:04;78877.03;;;-3.47;100.00
13954;BME280;7049;49.444;8.522;2022-12-05T05:44:06;78885.41;;;-3.47;100.00
13954;BME280;7049;49.444;8.522;2022-12-05T05:49:09;78885.41;;;-3.47;100.00
13954;BME280;7049;49.444;8.522;2022-12-05T05:54:11;78897.97;;;-3.47;100.00
13954;BME280;7049;49.444;8.522;2022-12-05T05:59:12;78900.06;;;-3.47;100.00
13954;BME280;7049;49.444;8.522;2022-12-05T06:04:15;78895.88;;;-3.47;100.00
13954;BME280;7049;49.444;8.522;2022-12-05T06:09:16;78895.88;;;-3.47;100.00
13954;BME280;7049;49.444;8.522;2022-12-05T06:14:18;78897.97;;;-3.47;100.00
13954;BME280;7049;49.444;8.522;2022-12-05T06:19:21;78902.16;;;-3.47;100.00
13954;BME280;7049;49.444;8.522;2022-12-05T06:24:22;78910.50;;;-3.47;100.00
13954;BME280;7049;49.444;8.522;2022-12-05T06:29:24;78902.16;;;-3.47;100.00
13954;BME280;7049;49.444;8.522;2022-12-05T06:34:26;78908.41;;;-3.47;100.00
13954;BME280;7049;49.444;8.522;2022-12-05T06:39:28;78908.41;;;-3.47;100.00
13954;BME280;7049;49.444;8.522;2022-12-05T06:44:29;78914.69;;;-3.47;100.00
13954;BME280;7049;49.444;8.522;2022-12-05T06:49:32;78925.16;;;-3.47;100.00
13954;BME280;7049;49.444;8.522;2022-12-05T06:54:35;78929.34;;;-3.47;100.00
13954;BME280;7049;49.444;8.522;2022-12-05T06:59:36;78939.81;;;-3.47;100.00
13954;BME280;7049;49.444;8.522;2022-12-05T07:04:39;78944.00;;;-3.47;100.00
13954;BME280;7049;49.444;8.522;2022-12-05T07:09:40;78931.44;;;-3.47;100.00
13954;BME280;7049;49.444;8.522;2022-12-05T07:14:51;78935.63;;;-3.47;100.00
13954;BME280;7049;49.444;8.522;2022-12-05T07:19:54;78941.91;;;-3.47;100.00
13954;BME280;7049;49.444;8.522;2022-12-05T07:24:55;78937.72;;;-3.47;100.00
13954;BME280;7049;49.444;8.522;2022-12-05T07:29:57;78935.63;;;-3.47;100.00
13954;BME280;7049;49.444;8.522;2022-12-05T07:34:59;78939.81;;;-3.47;100.00
13954;BME280;7049;49.444;8.522;2022-12-05T07:40:01;78941.91;;;-3.47;100.00
13954;BME280;7049;49.444;8.522;2022-12-05T07:45:03;78946.09;;;-3.47;100.00
13954;BME280;7049;49.444;8.522;2022-12-05T07:50:07;78939.81;;;-3.47;100.00
13954;BME280;7049;49.444;8.522;2022-12-05T07:55:08;78946.09;;;-3.47;100.00
13954;BME280;7049;49.444;8.522;2022-12-05T08:00:11;78941.91;;;-3.47;100.00
13954;BME280;7049;49.444;8.522;2022-12-05T08:05:14;78950.28;;;-3.47;100.00
13954;BME280;7049;49.444;8.522;2022-12-05T08:10:16;78956.56;;;-3.47;100.00
13954;BME280;7049;49.444;8.522;2022-12-05T08:15:17;78960.75;;;-3.47;100.00
13954;BME280;7049;49.444;8.522;2022-12-05T08:20:20;78962.84;;;-3.47;100.00
13954;BME280;7049;49.444;8.522;2022-12-05T08:25:22;78964.94;;;-3.47;100.00
13954;BME280;7049;49.444;8.522;2022-12-05T08:30:23;78971.22;;;-3.47;100.00
13954;BME280;7049;49.444;8.522;2022-12-05T08:35:26;78969.13;;;-3.47;100.00
13954;BME280;7049;49.444;8.522;2022-12-05T08:40:27;78960.75;;;-3.47;100.00
13954;BME280;7049;49.444;8.522;2022-12-05T08:45:30;78956.56;;;-3.47;100.00
13954;BME280;7049;49.444;8.522;2022-12-05T08:50:33;78964.94;;;-3.47;100.00
13954;BME280;7049;49.444;8.522;2022-12-05T08:55:35;78962.84;;;-3.47;100.00
13954;BME280;7049;49.444;8.522;2022-12-05T09:00:37;78964.94;;;-3.47;100.00
13954;BME280;7049;49.444;8.522;2022-12-05T09:05:40;78964.94;;;-3.47;100.00
13954;BME280;7049;49.444;8.522;2022-12-05T09:10:41;78960.75;;;-3.47;100.00
13954;BME280;7049;49.444;8.522;2022-12-05T09:15:42;78964.94;;;-3.47;100.00
13954;BME280;7049;49.444;8.522;2022-12-05T09:20:45;78969.13;;;-3.47;100.00
13954;BME280;7049;49.444;8.522;2022-12-05T09:25:52;78977.50;;;-3.47;100.00
13954;BME280;7049;49.444;8.522;2022-12-05T09:30:56;78975.41;;;-3.47;100.00
13954;BME280;7049;49.444;8.522;2022-12-05T09:36:01;78977.50;;;-3.47;100.00
13954;BME280;7049;49.444;8.522;2022-12-05T09:41:09;78977.50;;;-3.47;100.00
13954;BME280;7049;49.444;8.522;2022-12-05T09:46:17;78981.69;;;-3.47;100.00
13954;BME280;7049;49.444;8.522;2022-12-05T09:51:22;78985.88;;;-3.47;100.00
13954;BME280;7049;49.444;8.522;2022-12-05T09:56:27;78975.41;;;-3.47;100.00
13954;BME280;7049;49.444;8.522;2022-12-05T10:01:36;78979.59;;;-3.47;100.00
13954;BME280;7049;49.444;8.522;2022-12-05T10:06:48;78975.41;;;-3.47;100.00
13954;BME280;7049;49.444;8.522;2022-12-05T10:11:59;78969.13;;;-3.47;100.00
13954;BME280;7049;49.444;8.522;2022-12-05T10:17:07;78960.75;;;-3.47;100.00
13954;BME280;7049;49.444;8.522;2022-12-05T10:22:15;78956.56;;;-3.47;100.00
13954;BME280;7049;49.444;8.522;2022-12-05T10:27:24;78939.81;;;-3.47;100.00
13954;BME280;7049;49.444;8.522;2022-12-05T10:32:30;78939.81;;;-3.47;100.00
13954;BME280;7049;49.444;8.522;2022-12-05T10:37:35;78939.81;;;-3.47;100.00
13954;BME280;7049;49.444;8.522;2022-12-05T10:42:37;78935.63;;;-3.47;100.00
13954;BME280;7049;49.444;8.522;2022-12-05T10:47:38;78935.63;;;-3.47;100.00
13954;BME280;7049;49.444;8.522;2022-12-05T10:52:42;78933.53;;;-3.47;100.00
13954;BME280;7049;49.444;8.522;2022-12-05T10:57:48;78939.81;;;-3.47;100.00
13954;BME280;7049;49.444;8.522;2022-12-05T11:02:50;78927.25;;;-3.47;100.00
13954;BME280;7049;49.444;8.522;2022-12-05T11:07:53;78914.69;;;-3.47;100.00
13954;BME280;7049;49.444;8.522;2022-12-05T11:12:57;78918.88;;;-3.47;100.00
13954;BME280;7049;49.444;8.522;2022-12-05T11:18:16;78920.97;;;-3.47;100.00
13954;BME280;7049;49.444;8.522;2022-12-05T11:23:25;78906.31;;;-3.47;100.00
13954;BME280;7049;49.444;8.522;2022-12-05T11:28:33;78904.22;;;-3.47;100.00
13954;BME280;7049;49.444;8.522;2022-12-05T11:33:35;78904.22;;;-3.47;100.00
13954;BME280;7049;49.444;8.522;2022-12-05T11:38:38;78897.97;;;-3.47;100.00
13954;BME280;7049;49.444;8.522;2022-12-05T11:43:56;78895.88;;;-3.47;100.00
13954;BME280;7049;49.444;8.522;2022-12-05T11:49:14;78879.13;;;-3.47;100.00
13954;BME280;7049;49.444;8.522;2022-12-05T11:54:47;78868.66;;;-3.47;100.00
13954;BME280;7049;49.444;8.522;2022-12-05T12:00:17;78860.28;;;-3.47;100.00
13954;BME280;7049;49.444;8.522;2022-12-05T12:05:24;78856.09;;;-3.47;100.00
13954;BME280;7049;49.444;8.522;2022-12-05T12:10:39;78841.44;;;-3.47;100.00
13954;BME280;7049;49.444;8.522;2022-12-05T12:15:57;78854.00;;;-3.47;100.00
13954;BME280;7049;49.444;8.522;2022-12-05T12:21:08;78847.72;;;-3.47;100.00
13954;BME280;7049;49.444;8.522;2022-12-05T12:26:21;78843.53;;;-3.47;100.00
13954;BME280;7049;49.444;8.522;2022-12-05T12:31:39;78826.78;;;-3.47;100.00
13954;BME280;7049;49.444;8.522;2022-12-05T12:36:44;78830.97;;;-3.47;100.00
13954;BME280;7049;49.444;8.522;2022-12-05T12:47:30;78803.78;;;-3.47;100.00
13954;BME280;7049;49.444;8.522;2022-12-05T12:52:52;78789.13;;;-3.47;100.00
13954;BME280;7049;49.444;8.522;2022-12-05T12:58:05;78793.31;;;-3.47;100.00
13954;BME280;7049;49.444;8.522;2022-12-05T13:03:18;78784.94;;;-3.47;100.00
13954;BME280;7049;49.444;8.522;2022-12-05T13:08:25;78774.47;;;-3.47;100.00
13954;BME280;7049;49.444;8.522;2022-12-05T13:13:33;78778.66;;;-3.47;99.63
13954;BME280;7049;49.444;8.522;2022-12-05T13:18:37;78778.66;;;-3.47;98.98
13954;BME280;7049;49.444;8.522;2022-12-05T13:23:43;78793.31;;;-3.47;98.67
13954;BME280;7049;49.444;8.522;2022-12-05T13:28:49;78787.03;;;-3.47;98.56
13954;BME280;7049;49.444;8.522;2022-12-05T13:33:52;78797.50;;;-3.47;98.77
13954;BME280;7049;49.444;8.522;2022-12-05T13:38:56;78801.69;;;-3.47;99.28
13954;BME280;7049;49.444;8.522;2022-12-05T13:44:29;78803.78;;;-3.47;98.78
13954;BME280;7049;49.444;8.522;2022-12-05T13:49:41;78805.84;;;-3.47;98.68
13954;BME280;7049;49.444;8.522;2022-12-05T13:54:50;78810.03;;;-3.47;97.70
13954;BME280;7049;49.444;8.522;2022-12-05T13:59:58;78810.03;;;-3.47;95.49
13954;BME280;7049;49.444;8.522;2022-12-05T14:05:34;78810.03;;;-3.47;94.48
13954;BME280;7049;49.444;8.522;2022-12-05T14:11:07;78810.03;;;-3.47;94.44
13954;BME280;7049;49.444;8.522;2022-12-05T14:21:59;78801.69;;;-3.47;93.15
13954;BME280;7049;49.444;8.522;2022-12-05T14:27:07;78805.84;;;-3.47;92.93
13954;BME280;7049;49.444;8.522;2022-12-05T14:32:20;78810.03;;;-3.47;92.27
13954;BME280;7049;49.444;8.522;2022-12-05T14:37:28;78814.22;;;-3.47;92.19
13954;BME280;7049;49.444;8.522;2022-12-05T14:42:36;78807.94;;;-3.47;89.18
13954;BME280;7049;49.444;8.522;2022-12-05T14:47:39;78818.41;;;-3.47;89.82
13954;BME280;7049;49.444;8.522;2022-12-05T14:52:42;78816.31;;;-3.47;89.77
13954;BME280;7049;49.444;8.522;2022-12-05T14:57:46;78822.59;;;-3.47;89.04
13954;BME280;7049;49.444;8.522;2022-12-05T15:02:50;78826.78;;;-3.47;90.08
13954;BME280;7049;49.444;8.522;2022-12-05T15:07:57;78835.16;;;-3.47;89.36
13954;BME280;7049;49.444;8.522;2022-12-05T15:13:02;78849.81;;;-3.47;90.57
13954;BME280;7049;49.444;8.522;2022-12-05T15:18:13;78849.81;;;-3.47;90.65
13954;BME280;7049;49.444;8.522;2022-12-05T15:23:41;78851.91;;;-3.47;90.90
13954;BME280;7049;49.444;8.522;2022-12-05T15:28:56;78860.28;;;-3.47;91.14
13954;BME280;7049;49.444;8.522;2022-12-05T15:34:04;78856.09;;;-3.47;91.13
13954;BME280;7049;49.444;8.522;2022-12-05T15:39:17;78864.47;;;-3.47;90.72
13954;BME280;7049;49.444;8.522;2022-12-05T15:44:28;78872.84;;;-3.47;91.08
13954;BME280;7049;49.444;8.522;2022-12-05T15:49:30;78881.22;;;-3.47;91.63
13954;BME280;7049;49.444;8.522;2022-12-05T15:54:33;78885.41;;;-3.47;91.54
13954;BME280;7049;49.444;8.522;2022-12-05T15:59:39;78893.78;;;-3.47;91.61
13954;BME280;7049;49.444;8.522;2022-12-05T16:04:45;78904.22;;;-3.47;92.01
13954;BME280;7049;49.444;8.522;2022-12-05T16:09:54;78916.78;;;-3.47;92.01
13954;BME280;7049;49.444;8.522;2022-12-05T16:15:00;78914.69;;;-3.47;92.44
13954;BME280;7049;49.444;8.522;2022-12-05T16:20:10;78920.97;;;-3.47;92.39
13954;BME280;7049;49.444;8.522;2022-12-05T16:25:16;78929.34;;;-3.47;93.31
13954;BME280;7049;49.444;8.522;2022-12-05T16:30:19;78918.88;;;-3.47;92.50
13954;BME280;7049;49.444;8.522;2022-12-05T16:35:35;78920.97;;;-3.47;92.47
13954;BME280;7049;49.444;8.522;2022-12-05T16:40:40;78910.50;;;-3.47;92.28
13954;BME280;7049;49.444;8.522;2022-12-05T16:45:51;78912.59;;;-3.47;91.62
13954;BME280;7049;49.444;8.522;2022-12-05T16:51:15;78916.78;;;-3.47;91.38
13954;BME280;7049;49.444;8.522;2022-12-05T16:56:22;78914.69;;;-3.47;91.54
13954;BME280;7049;49.444;8.522;2022-12-05T17:01:25;78920.97;;;-3.47;91.28
13954;BME280;7049;49.444;8.522;2022-12-05T17:06:27;78927.25;;;-3.47;91.80
13954;BME280;7049;49.444;8.522;2022-12-05T17:11:32;78937.72;;;-3.47;92.82
13954;BME280;7049;49.444;8.522;2022-12-05T17:16:36;78935.63;;;-3.47;93.02
13954;BME280;7049;49.444;8.522;2022-12-05T17:21:39;78939.81;;;-3.47;93.46
13954;BME280;7049;49.444;8.522;2022-12-05T17:26:42;78944.00;;;-3.47;94.25
13954;BME280;7049;49.444;8.522;2022-12-05T17:31:44;78950.28;;;-3.47;95.07
13954;BME280;7049;49.444;8.522;2022-12-05T17:36:46;78950.28;;;-3.47;95.81
13954;BME280;7049;49.444;8.522;2022-12-05T17:41:49;78948.19;;;-3.47;96.17
13954;BME280;7049;49.444;8.522;2022-12-05T17:46:50;78956.56;;;-3.47;96.31
13954;BME280;7049;49.444;8.522;2022-12-05T17:51:51;78954.47;;;-3.47;96.51
13954;BME280;7049;49.444;8.522;2022-12-05T17:56:55;78962.84;;;-3.47;96.71
13954;BME280;7049;49.444;8.522;2022-12-05T18:01:56;78960.75;;;-3.47;96.84
13954;BME280;7049;49.444;8.522;2022-12-05T18:06:58;78960.75;;;-3.47;96.95
13954;BME280;7049;49.444;8.522;2022-12-05T18:12:00;78969.13;;;-3.47;97.23
13954;BME280;7049;49.444;8.522;2022-12-05T18:17:02;78969.13;;;-3.47;97.43
13954;BME280;7049;49.444;8.522;2022-12-05T18:22:04;78977.50;;;-3.47;97.35
13954;BME280;7049;49.444;8.522;2022-12-05T18:27:06;78977.50;;;-3.47;97.51
13954;BME280;7049;49.444;8.522;2022-12-05T18:32:11;78973.31;;;-3.47;97.72
13954;BME280;7049;49.444;8.522;2022-12-05T18:37:12;78975.41;;;-3.47;97.95
13954;BME280;7049;49.444;8.522;2022-12-05T18:42:16;78979.59;;;-3.47;98.21
13954;BME280;7049;49.444;8.522;2022-12-05T18:47:18;78981.69;;;-3.47;98.35
13954;BME280;7049;49.444;8.522;2022-12-05T18:52:20;78981.69;;;-3.47;98.43
13954;BME280;7049;49.444;8.522;2022-12-05T18:57:23;78977.50;;;-3.47;98.52
13954;BME280;7049;49.444;8.522;2022-12-05T19:02:24;78973.31;;;-3.47;98.49
13954;BME280;7049;49.444;8.522;2022-12-05T19:07:25;78975.41;;;-3.47;98.32
13954;BME280;7049;49.444;8.522;2022-12-05T19:12:30;78981.69;;;-3.47;98.08
13954;BME280;7049;49.444;8.522;2022-12-05T19:17:33;78977.50;;;-3.47;96.10
13954;BME280;7049;49.444;8.522;2022-12-05T19:22:34;78975.41;;;-3.47;93.57
13954;BME280;7049;49.444;8.522;2022-12-05T19:27:37;78973.31;;;-3.47;94.39
13954;BME280;7049;49.444;8.522;2022-12-05T19:32:39;78983.78;;;-3.47;94.33
13954;BME280;7049;49.444;8.522;2022-12-05T19:37:40;78977.50;;;-3.47;94.54
13954;BME280;7049;49.444;8.522;2022-12-05T19:42:43;78975.41;;;-3.47;94.17
13954;BME280;7049;49.444;8.522;2022-12-05T19:47:44;78981.69;;;-3.47;93.42
13954;BME280;7049;49.444;8.522;2022-12-05T19:52:46;78987.97;;;-3.47;93.37
13954;BME280;7049;49.444;8.522;2022-12-05T19:57:49;78975.41;;;-3.47;93.23
13954;BME280;7049;49.444;8.522;2022-12-05T20:02:50;78973.31;;;-3.47;92.47
13954;BME280;7049;49.444;8.522;2022-12-05T20:07:52;78969.13;;;-3.47;92.50
13954;BME280;7049;49.444;8.522;2022-12-05T20:12:55;78973.31;;;-3.47;92.80
13954;BME280;7049;49.444;8.522;2022-12-05T20:17:56;78973.31;;;-3.47;92.67
13954;BME280;7049;49.444;8.522;2022-12-05T20:22:57;78973.31;;;-3.47;92.09
13954;BME280;7049;49.444;8.522;2022-12-05T20:28:00;78977.50;;;-3.47;92.39
13954;BME280;7049;49.444;8.522;2022-12-05T20:33:02;78977.50;;;-3.47;92.40
13954;BME280;7049;49.444;8.522;2022-12-05T20:38:03;78977.50;;;-3.47;92.74
13954;BME280;7049;49.444;8.522;2022-12-05T20:43:06;78975.41;;;-3.47;92.88
13954;BME280;7049;49.444;8.522;2022-12-05T20:48:08;78981.69;;;-3.47;92.98
13954;BME280;7049;49.444;8.522;2022-12-05T20:53:09;78979.59;;;-3.47;93.20
13954;BME280;7049;49.444;8.522;2022-12-05T20:58:12;78975.41;;;-3.47;93.30
13954;BME280;7049;49.444;8.522;2022-12-05T21:03:13;78964.94;;;-3.47;92.99
13954;BME280;7049;49.444;8.522;2022-12-05T21:08:15;78973.31;;;-3.47;92.84
13954;BME280;7049;49.444;8.522;2022-12-05T21:13:18;78969.13;;;-3.47;92.76
13954;BME280;7049;49.444;8.522;2022-12-05T21:18:20;78977.50;;;-3.47;93.23
13954;BME280;7049;49.444;8.522;2022-12-05T21:23:21;78977.50;;;-3.47;93.77
13954;BME280;7049;49.444;8.522;2022-12-05T21:28:24;78964.94;;;-3.47;94.36
13954;BME280;7049;49.444;8.522;2022-12-05T21:33:25;78960.75;;;-3.47;95.44
13954;BME280;7049;49.444;8.522;2022-12-05T21:38:27;78962.84;;;-3.47;95.79
13954;BME280;7049;49.444;8.522;2022-12-05T21:43:30;78969.13;;;-3.47;96.36
13954;BME280;7049;49.444;8.522;2022-12-05T21:48:33;78964.94;;;-3.47;97.15
13954;BME280;7049;49.444;8.522;2022-12-05T21:53:34;78967.03;;;-3.47;97.82
13954;BME280;7049;49.444;8.522;2022-12-05T21:58:38;78969.13;;;-3.47;98.41
13954;BME280;7049;49.444;8.522;2022-12-05T22:03:41;78973.31;;;-3.47;98.59
13954;BME280;7049;49.444;8.522;2022-12-05T22:08:43;78973.31;;;-3.47;99.03
13954;BME280;7049;49.444;8.522;2022-12-05T22:13:46;78981.69;;;-3.47;99.42
13954;BME280;7049;49.444;8.522;2022-12-05T22:18:48;78977.50;;;-3.47;99.42
13954;BME280;7049;49.444;8.522;2022-12-05T22:23:50;78975.41;;;-3.47;99.48
13954;BME280;7049;49.444;8.522;2022-12-05T22:28:54;78977.50;;;-3.47;99.56
13954;BME280;7049;49.444;8.522;2022-12-05T22:33:56;78979.59;;;-3.47;99.69
13954;BME280;7049;49.444;8.522;2022-12-05T22:38:57;78981.69;;;-3.47;99.82
13954;BME280;7049;49.444;8.522;2022-12-05T22:44:00;78981.69;;;-3.47;99.78
13954;BME280;7049;49.444;8.522;2022-12-05T22:49:02;78983.78;;;-3.47;99.66
13954;BME280;7049;49.444;8.522;2022-12-05T22:54:04;78981.69;;;-3.47;99.65
13954;BME280;7049;49.444;8.522;2022-12-05T22:59:10;78981.69;;;-3.47;99.78
13954;BME280;7049;49.444;8.522;2022-12-05T23:04:12;78969.13;;;-3.47;99.75
13954;BME280;7049;49.444;8.522;2022-12-05T23:09:13;78969.13;;;-3.47;99.93
13954;BME280;7049;49.444;8.522;2022-12-05T23:14:16;78975.41;;;-3.47;99.97
13954;BME280;7049;49.444;8.522;2022-12-05T23:19:18;78977.50;;;-3.47;99.99
13954;BME280;7049;49.444;8.522;2022-12-05T23:24:19;78969.13;;;-3.47;99.82
13954;BME280;7049;49.444;8.522;2022-12-05T23:29:22;78971.22;;;-3.47;99.16
13954;BME280;7049;49.444;8.522;2022-12-05T23:34:24;78973.31;;;-3.47;98.98
13954;BME280;7049;49.444;8.522;2022-12-05T23:39:25;78967.03;;;-3.47;98.83
13954;BME280;7049;49.444;8.522;2022-12-05T23:44:28;78960.75;;;-3.47;98.97
13954;BME280;7049;49.444;8.522;2022-12-05T23:49:30;78962.84;;;-3.47;99.20
13954;BME280;7049;49.444;8.522;2022-12-05T23:54:31;78960.75;;;-3.47;99.19
13954;BME280;7049;49.444;8.522;2022-12-05T23:59:35;78964.94;;;-3.47;99.20
